Time;durP1;ratioP1;P1;durP2;ratioP2;P2;SDS_P1;SDS_P2;PMS_P1;PMS_P2;Temp;Humidity;BMP_temperature;BMP_pressure;BME280_temperature;BME280_humidity;BME280_pressure;Samples;Min_cycle;Max_cycle;Signal;HPM_P1;HPM_P2
2024/04/03 00:00:10;;;;;;;1999.90;999.90;;;;;;;;;;5039638;28;20139;-84
2024/04/03 00:02:36;;;;;;;1999.90;999.90;;;;;;;;;;5039816;28;20123;-85
2024/04/03 00:05:03;;;;;;;1999.90;999.90;;;;;;;;;;5036360;28;20555;-85
2024/04/03 00:07:28;;;;;;;1999.90;999.90;;;;;;;;;;5039517;28;20091;-85
2024/04/03 00:09:58;;;;;;;1999.90;999.90;;;;;;;;;;5043647;28;20048;-84
2024/04/03 00:12:29;;;;;;;1999.90;999.90;;;;;;;;;;5037240;28;20093;-85
2024/04/03 00:14:55;;;;;;;1999.90;999.90;;;;;;;;;;5042062;28;20946;-84
2024/04/03 00:17:21;;;;;;;1999.90;999.90;;;;;;;;;;5038630;28;20049;-85
2024/04/03 00:19:48;;;;;;;1999.90;999.90;;;;;;;;;;5036071;28;20053;-85
2024/04/03 00:22:13;;;;;;;1999.90;999.90;;;;;;;;;;5038290;28;20061;-84
2024/04/03 00:24:40;;;;;;;1999.90;999.90;;;;;;;;;;5036180;28;20049;-84
2024/04/03 00:27:05;;;;;;;1999.90;999.90;;;;;;;;;;5036647;28;20060;-84
2024/04/03 00:29:34;;;;;;;1999.90;999.90;;;;;;;;;;5042077;28;20205;-83
2024/04/03 00:31:59;;;;;;;1999.90;999.90;;;;;;;;;;5041498;28;20041;-84
2024/04/03 00:34:26;;;;;;;1999.90;999.90;;;;;;;;;;5043993;28;20067;-84
2024/04/03 00:36:51;;;;;;;1999.90;999.90;;;;;;;;;;5043015;28;20486;-84
2024/04/03 00:39:18;;;;;;;1999.90;999.90;;;;;;;;;;5039209;28;20064;-83
2024/04/03 00:41:44;;;;;;;1999.90;999.90;;;;;;;;;;5038266;28;20092;-83
2024/04/03 00:44:10;;;;;;;1999.90;999.90;;;;;;;;;;5043426;28;20080;-83
2024/04/03 00:46:38;;;;;;;1999.90;999.90;;;;;;;;;;5044742;28;20128;-83
2024/04/03 00:49:04;;;;;;;1999.90;999.90;;;;;;;;;;5041422;28;20080;-83
2024/04/03 00:51:31;;;;;;;1999.90;999.90;;;;;;;;;;5042373;28;20049;-83
2024/04/03 00:53:57;;;;;;;1999.90;999.90;;;;;;;;;;5042690;28;20080;-84
2024/04/03 00:56:24;;;;;;;1999.90;999.90;;;;;;;;;;5042796;28;20051;-84
2024/04/03 00:58:51;;;;;;;1999.90;999.90;;;;;;;;;;5043237;28;20053;-84
2024/04/03 01:01:16;;;;;;;1999.90;999.90;;;;;;;;;;5039885;28;20063;-83
2024/04/03 01:03:44;;;;;;;1999.90;999.90;;;;;;;;;;5041296;28;20049;-83
2024/04/03 01:06:11;;;;;;;1999.90;999.90;;;;;;;;;;5043862;28;20132;-84
2024/04/03 01:08:36;;;;;;;1999.90;999.90;;;;;;;;;;5045294;28;20518;-84
2024/04/03 01:11:03;;;;;;;1999.90;999.90;;;;;;;;;;5045302;28;20055;-84
2024/04/03 01:13:29;;;;;;;1999.90;999.90;;;;;;;;;;5043560;28;20040;-89
2024/04/03 01:16:29;;;;;;;1999.90;999.90;;;;;;;;;;5045208;28;20483;-89
2024/04/03 01:18:56;;;;;;;1999.90;999.90;;;;;;;;;;5046242;28;20057;-89
2024/04/03 01:21:29;;;;;;;1999.90;999.90;;;;;;;;;;5047996;28;20402;-89
2024/04/03 01:23:56;;;;;;;1999.90;999.90;;;;;;;;;;5035684;28;20069;-89
2024/04/03 01:26:25;;;;;;;1999.90;999.90;;;;;;;;;;5036232;28;20063;-88
2024/04/03 01:28:50;;;;;;;1999.90;999.90;;;;;;;;;;5037815;28;20076;-89
2024/04/03 01:31:22;;;;;;;1999.90;999.90;;;;;;;;;;5045276;28;20150;-90
2024/04/03 01:33:57;;;;;;;1999.90;999.90;;;;;;;;;;5045650;28;20075;-89
2024/04/03 01:36:24;;;;;;;1999.90;999.90;;;;;;;;;;5050543;28;20051;-89
2024/04/03 01:38:49;;;;;;;1999.90;999.90;;;;;;;;;;5050290;28;20084;-89
2024/04/03 01:41:17;;;;;;;1999.90;999.90;;;;;;;;;;5043449;28;20073;-89
2024/04/03 01:43:43;;;;;;;1999.90;999.90;;;;;;;;;;5038261;28;20128;-84
2024/04/03 01:46:09;;;;;;;1999.90;999.90;;;;;;;;;;5039001;28;20477;-84
2024/04/03 01:48:35;;;;;;;1999.90;999.90;;;;;;;;;;5043268;28;20060;-84
2024/04/03 01:51:01;;;;;;;1999.90;999.90;;;;;;;;;;5040480;28;20084;-83
2024/04/03 01:53:27;;;;;;;1999.90;999.90;;;;;;;;;;5038554;28;20056;-84
2024/04/03 01:55:54;;;;;;;1999.90;999.90;;;;;;;;;;5041299;28;20048;-84
2024/04/03 01:58:22;;;;;;;1999.90;999.90;;;;;;;;;;5040926;28;20048;-83
2024/04/03 02:00:49;;;;;;;1999.90;999.90;;;;;;;;;;5039156;28;20060;-84
2024/04/03 02:03:15;;;;;;;1999.90;999.90;;;;;;;;;;5040842;28;20051;-84
2024/04/03 02:05:43;;;;;;;1999.90;999.90;;;;;;;;;;5036972;28;20051;-84
2024/04/03 02:08:09;;;;;;;1999.90;999.90;;;;;;;;;;5041983;28;20511;-84
2024/04/03 02:10:35;;;;;;;1999.90;999.90;;;;;;;;;;5041253;28;20141;-84
2024/04/03 02:13:01;;;;;;;1999.90;999.90;;;;;;;;;;5039164;28;20101;-83
2024/04/03 02:15:29;;;;;;;1999.90;999.90;;;;;;;;;;5042340;28;20148;-83
2024/04/03 02:17:54;;;;;;;1999.90;999.90;;;;;;;;;;5040371;28;20128;-83
2024/04/03 02:20:21;;;;;;;1999.90;999.90;;;;;;;;;;5043354;28;20148;-83
2024/04/03 02:22:47;;;;;;;1999.90;999.90;;;;;;;;;;5040393;28;20423;-83
2024/04/03 02:25:14;;;;;;;1999.90;999.90;;;;;;;;;;5045737;28;20075;-90
2024/04/03 02:27:39;;;;;;;1999.90;999.90;;;;;;;;;;5044900;28;20060;-91
2024/04/03 02:30:07;;;;;;;1999.90;999.90;;;;;;;;;;5041941;28;20052;-90
2024/04/03 02:32:33;;;;;;;1999.90;999.90;;;;;;;;;;5044712;28;20132;-90
2024/04/03 02:35:00;;;;;;;1999.90;999.90;;;;;;;;;;5046450;28;20483;-90
2024/04/03 02:37:26;;;;;;;1999.90;999.90;;;;;;;;;;5040720;28;20139;-89
2024/04/03 02:39:52;;;;;;;1999.90;999.90;;;;;;;;;;5044454;28;20084;-90
2024/04/03 02:42:18;;;;;;;1999.90;999.90;;;;;;;;;;5046189;28;20066;-90
2024/04/03 02:44:45;;;;;;;1999.90;999.90;;;;;;;;;;5045802;28;20060;-90
2024/04/03 02:47:11;;;;;;;1999.90;999.90;;;;;;;;;;5046119;28;20083;-90
2024/04/03 02:49:45;;;;;;;1999.90;999.90;;;;;;;;;;5045736;28;20077;-90
2024/04/03 02:52:10;;;;;;;1999.90;999.90;;;;;;;;;;5040119;28;20514;-88
2024/04/03 02:54:49;;;;;;;1999.90;999.90;;;;;;;;;;5037718;28;20128;-90
2024/04/03 02:57:42;;;;;;;1999.90;999.90;;;;;;;;;;5045151;28;20045;-90
2024/04/03 03:00:10;;;;;;;1999.90;999.90;;;;;;;;;;5040575;28;20053;-90
2024/04/03 03:02:36;;;;;;;1999.90;999.90;;;;;;;;;;5039268;28;20173;-90
2024/04/03 03:05:04;;;;;;;1999.90;999.90;;;;;;;;;;5047777;28;20455;-89
2024/04/03 03:07:30;;;;;;;1999.90;999.90;;;;;;;;;;5041926;28;20076;-90
2024/04/03 03:09:56;;;;;;;1999.90;999.90;;;;;;;;;;5038668;28;20080;-90
2024/04/03 03:12:22;;;;;;;1999.90;999.90;;;;;;;;;;5044499;28;20049;-89
2024/04/03 03:15:00;;;;;;;1999.90;999.90;;;;;;;;;;5047959;28;20152;-89
2024/04/03 03:17:26;;;;;;;1999.90;999.90;;;;;;;;;;5045337;28;20045;-89
2024/04/03 03:19:53;;;;;;;1999.90;999.90;;;;;;;;;;5035864;28;20132;-89
2024/04/03 03:22:20;;;;;;;1999.90;999.90;;;;;;;;;;5040867;28;20049;-89
2024/04/03 03:24:47;;;;;;;1999.90;999.90;;;;;;;;;;5047822;28;20059;-89
2024/04/03 03:27:12;;;;;;;1999.90;999.90;;;;;;;;;;5039171;28;20353;-90
2024/04/03 03:29:39;;;;;;;1999.90;999.90;;;;;;;;;;5042059;28;20060;-89
2024/04/03 03:32:05;;;;;;;1999.90;999.90;;;;;;;;;;5038388;28;20120;-88
2024/04/03 03:34:32;;;;;;;1999.90;999.90;;;;;;;;;;5042983;28;20184;-84
2024/04/03 03:36:58;;;;;;;1999.90;999.90;;;;;;;;;;5036590;28;20080;-84
2024/04/03 03:39:26;;;;;;;1999.90;999.90;;;;;;;;;;5038076;28;20053;-84
2024/04/03 03:41:52;;;;;;;1999.90;999.90;;;;;;;;;;5039392;28;20136;-84
2024/04/03 03:44:19;;;;;;;1999.90;999.90;;;;;;;;;;5041498;28;20057;-84
2024/04/03 03:46:46;;;;;;;1999.90;999.90;;;;;;;;;;5042152;28;20069;-83
2024/04/03 03:54:42;;;;;;;1999.90;999.90;;;;;;;;;;5040570;28;20056;-85
2024/04/03 03:57:08;;;;;;;1999.90;999.90;;;;;;;;;;5039676;28;20418;-84
2024/04/03 03:59:35;;;;;;;1999.90;999.90;;;;;;;;;;5040405;28;20049;-84
2024/04/03 04:02:01;;;;;;;1999.90;999.90;;;;;;;;;;5041522;28;20045;-84
2024/04/03 04:04:28;;;;;;;1999.90;999.90;;;;;;;;;;5045694;28;20510;-84
2024/04/03 04:06:53;;;;;;;1999.90;999.90;;;;;;;;;;5046427;28;20072;-84
2024/04/03 04:09:20;;;;;;;1999.90;999.90;;;;;;;;;;5048210;28;20079;-84
2024/04/03 04:11:47;;;;;;;1999.90;999.90;;;;;;;;;;5046209;28;20049;-85
2024/04/03 04:14:14;;;;;;;1999.90;999.90;;;;;;;;;;5046652;28;20060;-85
2024/04/03 04:16:39;;;;;;;1999.90;999.90;;;;;;;;;;5046741;28;20136;-85
2024/04/03 04:19:06;;;;;;;1999.90;999.90;;;;;;;;;;5045425;28;20129;-84
2024/04/03 04:21:32;;;;;;;1999.90;999.90;;;;;;;;;;5047112;28;20057;-85
2024/04/03 04:23:58;;;;;;;1999.90;999.90;;;;;;;;;;5044877;28;20052;-85
2024/04/03 04:26:24;;;;;;;1999.90;999.90;;;;;;;;;;5043433;28;20057;-85
2024/04/03 04:28:51;;;;;;;1999.90;999.90;;;;;;;;;;5042940;28;20053;-86
2024/04/03 04:31:18;;;;;;;1999.90;999.90;;;;;;;;;;5049396;28;20053;-84
2024/04/03 04:33:44;;;;;;;1999.90;999.90;;;;;;;;;;5049053;28;20134;-86
2024/04/03 04:36:10;;;;;;;1999.90;999.90;;;;;;;;;;5044200;28;20137;-86
2024/04/03 04:38:36;;;;;;;1999.90;999.90;;;;;;;;;;5047763;28;20084;-86
2024/04/03 04:41:03;;;;;;;1999.90;999.90;;;;;;;;;;5044530;28;20081;-85
2024/04/03 04:43:30;;;;;;;1999.90;999.90;;;;;;;;;;5042499;28;20140;-84
2024/04/03 04:45:59;;;;;;;1999.90;999.90;;;;;;;;;;5045144;28;20057;-85
2024/04/03 04:48:25;;;;;;;1999.90;999.90;;;;;;;;;;5050839;28;20045;-84
2024/04/03 04:50:53;;;;;;;1999.90;999.90;;;;;;;;;;5044527;28;20053;-85
2024/04/03 04:53:18;;;;;;;1999.90;999.90;;;;;;;;;;5042510;28;20056;-84
2024/04/03 04:55:55;;;;;;;1999.90;999.90;;;;;;;;;;5041763;28;20049;-85
2024/04/03 04:58:21;;;;;;;1999.90;999.90;;;;;;;;;;5037545;28;20495;-84
2024/04/03 05:00:48;;;;;;;1999.90;999.90;;;;;;;;;;5043724;28;20052;-83
2024/04/03 05:03:15;;;;;;;1999.90;999.90;;;;;;;;;;5045906;28;20055;-84
2024/04/03 05:05:41;;;;;;;1999.90;999.90;;;;;;;;;;5048860;28;20088;-85
2024/04/03 05:08:07;;;;;;;1999.90;999.90;;;;;;;;;;5044586;28;20046;-85
2024/04/03 05:10:34;;;;;;;1999.90;999.90;;;;;;;;;;5043154;28;20785;-85
2024/04/03 05:13:00;;;;;;;1999.90;999.90;;;;;;;;;;5045610;28;20057;-85
2024/04/03 05:15:29;;;;;;;1999.90;999.90;;;;;;;;;;5040466;28;20057;-85
2024/04/03 05:17:55;;;;;;;1999.90;999.90;;;;;;;;;;5039154;28;20049;-85
2024/04/03 05:20:23;;;;;;;1999.90;999.90;;;;;;;;;;5042229;28;20067;-85
2024/04/03 05:22:51;;;;;;;1999.90;999.90;;;;;;;;;;5041969;28;20045;-85
2024/04/03 05:25:18;;;;;;;1999.90;999.90;;;;;;;;;;5037027;28;20048;-84
2024/04/03 05:27:45;;;;;;;1999.90;999.90;;;;;;;;;;5043153;28;20049;-86
2024/04/03 05:30:11;;;;;;;1999.90;999.90;;;;;;;;;;5042195;28;20051;-88
2024/04/03 05:32:38;;;;;;;1999.90;999.90;;;;;;;;;;5044281;28;20053;-88
2024/04/03 05:35:04;;;;;;;1999.90;999.90;;;;;;;;;;5048488;28;20083;-85
2024/04/03 05:37:32;;;;;;;1999.90;999.90;;;;;;;;;;5047157;28;20053;-83
2024/04/03 05:39:59;;;;;;;1999.90;999.90;;;;;;;;;;5044004;28;20122;-85
2024/04/03 05:42:25;;;;;;;1999.90;999.90;;;;;;;;;;5043206;28;20049;-84
2024/04/03 05:44:51;;;;;;;1999.90;999.90;;;;;;;;;;5045252;28;20053;-84
2024/04/03 05:47:17;;;;;;;1999.90;999.90;;;;;;;;;;5045300;28;20059;-83
2024/04/03 05:49:43;;;;;;;1999.90;999.90;;;;;;;;;;5048956;28;20139;-84
2024/04/03 05:52:10;;;;;;;1999.90;999.90;;;;;;;;;;5046202;28;20481;-86
2024/04/03 05:54:36;;;;;;;1999.90;999.90;;;;;;;;;;5047370;28;20208;-87
2024/04/03 05:57:05;;;;;;;1999.90;999.90;;;;;;;;;;5046120;28;20094;-92
2024/04/03 05:59:30;;;;;;;1999.90;999.90;;;;;;;;;;5036312;28;20046;-90
2024/04/03 06:01:57;;;;;;;1999.90;999.90;;;;;;;;;;5036823;28;20132;-89
2024/04/03 06:04:23;;;;;;;1999.90;999.90;;;;;;;;;;5049710;28;20057;-91
2024/04/03 06:06:51;;;;;;;1999.90;999.90;;;;;;;;;;5054333;28;20059;-92
2024/04/03 06:09:17;;;;;;;1999.90;999.90;;;;;;;;;;5049729;28;20080;-92
2024/04/03 06:11:45;;;;;;;1999.90;999.90;;;;;;;;;;5046151;28;20687;-92
2024/04/03 06:14:10;;;;;;;1999.90;999.90;;;;;;;;;;5054219;28;20144;-90
2024/04/03 06:16:37;;;;;;;1999.90;999.90;;;;;;;;;;5044771;28;20135;-92
2024/04/03 06:19:05;;;;;;;1999.90;999.90;;;;;;;;;;5036895;28;20068;-92
2024/04/03 06:21:32;;;;;;;1999.90;999.90;;;;;;;;;;5047656;28;20052;-91
2024/04/03 06:23:58;;;;;;;1999.90;999.90;;;;;;;;;;5044151;28;20144;-92
2024/04/03 06:26:25;;;;;;;1999.90;999.90;;;;;;;;;;5043650;28;20095;-92
2024/04/03 06:28:52;;;;;;;1999.90;999.90;;;;;;;;;;5049024;28;20080;-92
2024/04/03 06:31:18;;;;;;;1999.90;999.90;;;;;;;;;;5042895;28;20057;-87
2024/04/03 06:33:44;;;;;;;1999.90;999.90;;;;;;;;;;5044229;28;20100;-87
2024/04/03 06:36:11;;;;;;;1999.90;999.90;;;;;;;;;;5041022;28;20698;-87
2024/04/03 06:38:36;;;;;;;1999.90;999.90;;;;;;;;;;5041200;28;20049;-86
2024/04/03 06:41:03;;;;;;;1999.90;999.90;;;;;;;;;;5040731;28;20052;-87
2024/04/03 06:43:28;;;;;;;1999.90;999.90;;;;;;;;;;5043775;28;20053;-87
2024/04/03 06:45:57;;;;;;;1999.90;999.90;;;;;;;;;;5038933;28;20071;-87
2024/04/03 06:48:23;;;;;;;1999.90;999.90;;;;;;;;;;5033352;28;20054;-86
2024/04/03 06:50:51;;;;;;;1999.90;999.90;;;;;;;;;;5039755;28;20095;-87
2024/04/03 06:53:17;;;;;;;1999.90;999.90;;;;;;;;;;5041474;28;20056;-87
2024/04/03 06:55:54;;;;;;;1999.90;999.90;;;;;;;;;;5041551;28;20045;-87
2024/04/03 06:58:20;;;;;;;1999.90;999.90;;;;;;;;;;5042841;28;20055;-87
2024/04/03 07:00:46;;;;;;;1999.90;999.90;;;;;;;;;;5045634;28;20049;-87
2024/04/03 07:03:13;;;;;;;1999.90;999.90;;;;;;;;;;5041185;28;20056;-87
2024/04/03 07:05:40;;;;;;;1999.90;999.90;;;;;;;;;;5042016;28;20088;-87
2024/04/03 07:08:06;;;;;;;1999.90;999.90;;;;;;;;;;5040586;28;20434;-87
2024/04/03 07:10:33;;;;;;;1999.90;999.90;;;;;;;;;;5041195;28;20049;-86
2024/04/03 07:13:01;;;;;;;1999.90;999.90;;;;;;;;;;5043293;28;20566;-86
2024/04/03 07:15:29;;;;;;;1999.90;999.90;;;;;;;;;;5041666;28;20103;-87
2024/04/03 07:17:54;;;;;;;1999.90;999.90;;;;;;;;;;5042248;28;20043;-87
2024/04/03 07:20:25;;;;;;;1999.90;999.90;;;;;;;;;;5043609;28;20065;-87
2024/04/03 07:22:52;;;;;;;1999.90;999.90;;;;;;;;;;5033522;28;20507;-86
2024/04/03 07:25:18;;;;;;;1999.90;999.90;;;;;;;;;;5043424;28;20119;-86
2024/04/03 07:27:45;;;;;;;1999.90;999.90;;;;;;;;;;5042916;28;20388;-87
2024/04/03 07:30:12;;;;;;;1999.90;999.90;;;;;;;;;;5045861;28;20136;-87
2024/04/03 07:32:37;;;;;;;1999.90;999.90;;;;;;;;;;5042922;28;20136;-87
2024/04/03 07:35:05;;;;;;;1999.90;999.90;;;;;;;;;;5043662;28;20853;-87
2024/04/03 07:37:31;;;;;;;1999.90;999.90;;;;;;;;;;5041298;28;20049;-87
2024/04/03 07:39:58;;;;;;;1999.90;999.90;;;;;;;;;;5042811;28;20041;-86
2024/04/03 07:42:24;;;;;;;1999.90;999.90;;;;;;;;;;5046879;28;20088;-88
2024/04/03 07:44:55;;;;;;;1999.90;999.90;;;;;;;;;;5043927;28;20487;-87
2024/04/03 07:47:21;;;;;;;1999.90;999.90;;;;;;;;;;5045512;28;20461;-88
2024/04/03 07:49:51;;;;;;;1999.90;999.90;;;;;;;;;;5046827;28;20528;-87
2024/04/03 07:52:18;;;;;;;1999.90;999.90;;;;;;;;;;5041528;28;20053;-87
2024/04/03 07:54:46;;;;;;;1999.90;999.90;;;;;;;;;;5039906;28;20049;-88
2024/04/03 07:57:11;;;;;;;1999.90;999.90;;;;;;;;;;5035593;28;20044;-86
2024/04/03 07:59:38;;;;;;;1999.90;999.90;;;;;;;;;;5042922;28;20045;-87
2024/04/03 08:02:06;;;;;;;1999.90;999.90;;;;;;;;;;5037937;28;20168;-87
2024/04/03 08:04:32;;;;;;;1999.90;999.90;;;;;;;;;;5041615;28;20064;-86
2024/04/03 08:06:59;;;;;;;1999.90;999.90;;;;;;;;;;5039366;28;20497;-86
2024/04/03 08:09:25;;;;;;;1999.90;999.90;;;;;;;;;;5042280;28;20060;-87
2024/04/03 08:11:52;;;;;;;1999.90;999.90;;;;;;;;;;5042108;28;20045;-87
2024/04/03 08:14:19;;;;;;;1999.90;999.90;;;;;;;;;;5048246;28;20073;-87
2024/04/03 08:16:44;;;;;;;1999.90;999.90;;;;;;;;;;5041185;28;20053;-87
2024/04/03 08:19:12;;;;;;;1999.90;999.90;;;;;;;;;;5042388;28;20483;-87
2024/04/03 08:21:39;;;;;;;1999.90;999.90;;;;;;;;;;5042510;28;20147;-87
2024/04/03 08:24:08;;;;;;;1999.90;999.90;;;;;;;;;;5042474;28;20120;-87
2024/04/03 08:26:34;;;;;;;1999.90;999.90;;;;;;;;;;5040141;28;20195;-87
2024/04/03 08:29:02;;;;;;;1999.90;999.90;;;;;;;;;;5043544;28;20140;-87
2024/04/03 08:31:28;;;;;;;1999.90;999.90;;;;;;;;;;5039605;28;20053;-87
2024/04/03 08:33:54;;;;;;;1999.90;999.90;;;;;;;;;;5039685;28;20132;-87
2024/04/03 08:36:20;;;;;;;1999.90;999.90;;;;;;;;;;5040064;28;20129;-87
2024/04/03 08:38:46;;;;;;;1999.90;999.90;;;;;;;;;;5036268;28;20164;-87
2024/04/03 08:41:12;;;;;;;1999.90;999.90;;;;;;;;;;5040164;28;20128;-87
2024/04/03 08:43:39;;;;;;;1999.90;999.90;;;;;;;;;;5039983;28;20164;-87
2024/04/03 08:46:09;;;;;;;1999.90;999.90;;;;;;;;;;5039944;28;20053;-87
2024/04/03 08:48:39;;;;;;;1999.90;999.90;;;;;;;;;;5042304;28;20053;-87
2024/04/03 08:51:05;;;;;;;1999.90;999.90;;;;;;;;;;5040391;28;20048;-88
2024/04/03 08:53:33;;;;;;;1999.90;999.90;;;;;;;;;;5045025;28;20045;-87
2024/04/03 08:55:59;;;;;;;1999.90;999.90;;;;;;;;;;5047827;28;20055;-87
2024/04/03 08:58:26;;;;;;;1999.90;999.90;;;;;;;;;;5045107;28;20053;-87
2024/04/03 09:00:52;;;;;;;1999.90;999.90;;;;;;;;;;5044439;28;20051;-87
2024/04/03 09:03:20;;;;;;;1999.90;999.90;;;;;;;;;;5047014;28;20052;-88
2024/04/03 09:05:47;;;;;;;1999.90;999.90;;;;;;;;;;5042275;28;20053;-87
2024/04/03 09:08:14;;;;;;;1999.90;999.90;;;;;;;;;;5045582;28;20132;-87
2024/04/03 09:10:44;;;;;;;1999.90;999.90;;;;;;;;;;5046890;28;20060;-86
2024/04/03 09:13:11;;;;;;;1999.90;999.90;;;;;;;;;;5044713;28;20049;-87
2024/04/03 09:15:37;;;;;;;1999.90;999.90;;;;;;;;;;5040664;28;20041;-86
2024/04/03 09:18:06;;;;;;;1999.90;999.90;;;;;;;;;;5045117;28;20045;-87
2024/04/03 09:20:34;;;;;;;1999.90;999.90;;;;;;;;;;5046446;28;20045;-87
2024/04/03 09:23:01;;;;;;;1999.90;999.90;;;;;;;;;;5041556;28;20168;-87
2024/04/03 09:25:27;;;;;;;1999.90;999.90;;;;;;;;;;5043691;28;20132;-87
2024/04/03 09:28:01;;;;;;;1999.90;999.90;;;;;;;;;;5041070;28;20087;-87
2024/04/03 09:30:27;;;;;;;1999.90;999.90;;;;;;;;;;5044239;28;20073;-86
2024/04/03 09:33:00;;;;;;;1999.90;999.90;;;;;;;;;;5040112;28;20391;-87
2024/04/03 09:35:27;;;;;;;1999.90;999.90;;;;;;;;;;5040208;28;20128;-87
2024/04/03 09:37:56;;;;;;;1999.90;999.90;;;;;;;;;;5042618;28;20103;-87
2024/04/03 09:40:24;;;;;;;1999.90;999.90;;;;;;;;;;5042536;28;20054;-87
2024/04/03 09:42:57;;;;;;;1999.90;999.90;;;;;;;;;;5043894;28;20573;-88
2024/04/03 09:45:24;;;;;;;1999.90;999.90;;;;;;;;;;5045305;28;20054;-87
2024/04/03 09:47:57;;;;;;;1999.90;999.90;;;;;;;;;;5039785;28;20065;-87
2024/04/03 09:50:23;;;;;;;1999.90;999.90;;;;;;;;;;5041841;28;20415;-87
2024/04/03 09:52:51;;;;;;;1999.90;999.90;;;;;;;;;;5046024;28;20059;-86
2024/04/03 09:55:21;;;;;;;1999.90;999.90;;;;;;;;;;5038199;28;20392;-87
2024/04/03 09:57:47;;;;;;;1999.90;999.90;;;;;;;;;;5041165;28;20140;-86
2024/04/03 10:00:14;;;;;;;1999.90;999.90;;;;;;;;;;5042806;28;20137;-87
2024/04/03 10:02:47;;;;;;;1999.90;999.90;;;;;;;;;;5047455;28;20065;-87
2024/04/03 10:05:13;;;;;;;1999.90;999.90;;;;;;;;;;5047180;28;20081;-87
2024/04/03 10:07:39;;;;;;;1999.90;999.90;;;;;;;;;;5041092;28;20053;-87
2024/04/03 10:10:15;;;;;;;1999.90;999.90;;;;;;;;;;5042820;28;20042;-87
2024/04/03 10:12:46;;;;;;;1999.90;999.90;;;;;;;;;;5037061;28;20125;-88
2024/04/03 10:15:22;;;;;;;1999.90;999.90;;;;;;;;;;5039310;28;20103;-87
2024/04/03 10:17:49;;;;;;;1999.90;999.90;;;;;;;;;;5032503;28;20045;-88
2024/04/03 10:20:28;;;;;;;1999.90;999.90;;;;;;;;;;5042888;28;20140;-86
2024/04/03 10:22:55;;;;;;;1999.90;999.90;;;;;;;;;;5037885;28;20238;-86
2024/04/03 10:25:21;;;;;;;1999.90;999.90;;;;;;;;;;5042955;28;20053;-87
2024/04/03 10:27:49;;;;;;;1999.90;999.90;;;;;;;;;;5040747;28;20392;-88
2024/04/03 10:30:18;;;;;;;1999.90;999.90;;;;;;;;;;5043133;28;20129;-88
2024/04/03 10:32:45;;;;;;;1999.90;999.90;;;;;;;;;;5042180;28;20049;-86
2024/04/03 10:35:11;;;;;;;1999.90;999.90;;;;;;;;;;5049248;28;20063;-86
2024/04/03 10:37:37;;;;;;;1999.90;999.90;;;;;;;;;;5043380;28;20467;-85
2024/04/03 10:40:03;;;;;;;1999.90;999.90;;;;;;;;;;5042065;28;20048;-85
2024/04/03 10:42:30;;;;;;;1999.90;999.90;;;;;;;;;;5042954;28;20057;-85
2024/04/03 10:44:57;;;;;;;1999.90;999.90;;;;;;;;;;5040767;28;20061;-88
2024/04/03 10:47:23;;;;;;;1999.90;999.90;;;;;;;;;;5040549;28;20515;-87
2024/04/03 10:49:49;;;;;;;1999.90;999.90;;;;;;;;;;5041563;28;20128;-85
2024/04/03 10:52:16;;;;;;;1999.90;999.90;;;;;;;;;;5041751;28;20127;-85
2024/04/03 10:54:42;;;;;;;1999.90;999.90;;;;;;;;;;5039869;28;20049;-85
2024/04/03 10:57:08;;;;;;;1999.90;999.90;;;;;;;;;;5041603;28;20045;-85
2024/04/03 10:59:35;;;;;;;1999.90;999.90;;;;;;;;;;5044034;28;20060;-85
2024/04/03 11:02:03;;;;;;;1999.90;999.90;;;;;;;;;;5047028;28;20049;-89
2024/04/03 11:04:28;;;;;;;1999.90;999.90;;;;;;;;;;5035986;28;20053;-86
2024/04/03 11:06:57;;;;;;;1999.90;999.90;;;;;;;;;;5038568;28;20156;-86
2024/04/03 11:09:25;;;;;;;1999.90;999.90;;;;;;;;;;5042937;28;20049;-86
2024/04/03 11:11:52;;;;;;;1999.90;999.90;;;;;;;;;;5035939;28;20049;-86
2024/04/03 11:14:22;;;;;;;1999.90;999.90;;;;;;;;;;5039592;28;20056;-83
2024/04/03 11:16:48;;;;;;;1999.90;999.90;;;;;;;;;;5040475;28;20442;-85
2024/04/03 11:19:15;;;;;;;1999.90;999.90;;;;;;;;;;5040460;28;20075;-83
2024/04/03 11:21:42;;;;;;;1999.90;999.90;;;;;;;;;;5039770;28;20079;-83
2024/04/03 11:24:09;;;;;;;1999.90;999.90;;;;;;;;;;5038456;28;20125;-83
2024/04/03 11:26:36;;;;;;;1999.90;999.90;;;;;;;;;;5035912;28;20150;-83
2024/04/03 11:29:27;;;;;;;1999.90;999.90;;;;;;;;;;5038948;28;20075;-83
2024/04/03 11:31:53;;;;;;;1999.90;999.90;;;;;;;;;;5034260;28;20049;-82
2024/04/03 11:34:19;;;;;;;1999.90;999.90;;;;;;;;;;5038631;28;20052;-82
2024/04/03 11:36:46;;;;;;;1999.90;999.90;;;;;;;;;;5041463;28;20045;-82
2024/04/03 11:39:16;;;;;;;1999.90;999.90;;;;;;;;;;5038315;28;20045;-83
2024/04/03 11:41:43;;;;;;;1999.90;999.90;;;;;;;;;;5041205;28;20077;-82
2024/04/03 11:44:08;;;;;;;1999.90;999.90;;;;;;;;;;5037513;28;20049;-82
2024/04/03 11:46:36;;;;;;;1999.90;999.90;;;;;;;;;;5039949;28;20080;-84
2024/04/03 11:49:04;;;;;;;1999.90;999.90;;;;;;;;;;5038889;28;20050;-83
2024/04/03 11:51:30;;;;;;;1999.90;999.90;;;;;;;;;;5039905;28;20418;-82
2024/04/03 11:53:56;;;;;;;1999.90;999.90;;;;;;;;;;5037212;28;20053;-83
2024/04/03 11:56:23;;;;;;;1999.90;999.90;;;;;;;;;;5036891;28;20053;-82
2024/04/03 11:58:50;;;;;;;1999.90;999.90;;;;;;;;;;5041494;28;20071;-82
2024/04/03 12:01:16;;;;;;;1999.90;999.90;;;;;;;;;;5036143;28;20049;-82
2024/04/03 12:03:43;;;;;;;1999.90;999.90;;;;;;;;;;5037787;28;20115;-82
2024/04/03 12:06:10;;;;;;;1999.90;999.90;;;;;;;;;;5039287;28;20426;-82
2024/04/03 12:08:36;;;;;;;1999.90;999.90;;;;;;;;;;5040519;28;20051;-83
2024/04/03 12:11:04;;;;;;;1999.90;999.90;;;;;;;;;;5039121;28;20045;-83
2024/04/03 12:13:30;;;;;;;1999.90;999.90;;;;;;;;;;5041700;28;20048;-82
2024/04/03 12:16:03;;;;;;;1999.90;999.90;;;;;;;;;;5039331;28;20133;-84
2024/04/03 12:18:37;;;;;;;1999.90;999.90;;;;;;;;;;5038674;28;20756;-83
2024/04/03 12:21:07;;;;;;;1999.90;999.90;;;;;;;;;;5038696;28;20053;-83
2024/04/03 12:23:33;;;;;;;1999.90;999.90;;;;;;;;;;5042458;28;20052;-83
2024/04/03 12:26:00;;;;;;;1999.90;999.90;;;;;;;;;;5044918;28;20111;-83
2024/04/03 12:28:25;;;;;;;1999.90;999.90;;;;;;;;;;5039472;28;20042;-83
2024/04/03 12:30:52;;;;;;;1999.90;999.90;;;;;;;;;;5036215;28;20055;-82
2024/04/03 12:33:17;;;;;;;1999.90;999.90;;;;;;;;;;5039829;28;20921;-82
2024/04/03 12:35:44;;;;;;;1999.90;999.90;;;;;;;;;;5046082;28;20049;-82
2024/04/03 12:38:12;;;;;;;1999.90;999.90;;;;;;;;;;5043310;28;20045;-82
2024/04/03 12:40:39;;;;;;;1999.90;999.90;;;;;;;;;;5041481;28;20049;-82
2024/04/03 12:43:05;;;;;;;1999.90;999.90;;;;;;;;;;5041145;28;20047;-83
2024/04/03 12:45:32;;;;;;;1999.90;999.90;;;;;;;;;;5039675;28;20051;-82
2024/04/03 12:47:58;;;;;;;1999.90;999.90;;;;;;;;;;5044049;28;20453;-83
2024/04/03 12:50:26;;;;;;;1999.90;999.90;;;;;;;;;;5045269;28;20060;-84
2024/04/03 12:52:52;;;;;;;1999.90;999.90;;;;;;;;;;5043219;28;20099;-84
2024/04/03 12:55:20;;;;;;;1999.90;999.90;;;;;;;;;;5045314;28;20057;-86
2024/04/03 12:57:47;;;;;;;1999.90;999.90;;;;;;;;;;5042993;28;20049;-86
2024/04/03 13:00:14;;;;;;;1999.90;999.90;;;;;;;;;;5045867;28;20542;-87
2024/04/03 13:02:42;;;;;;;1999.90;999.90;;;;;;;;;;5044274;28;20049;-87
2024/04/03 13:05:07;;;;;;;1999.90;999.90;;;;;;;;;;5046886;28;20415;-83
2024/04/03 13:07:34;;;;;;;1999.90;999.90;;;;;;;;;;5043926;28;20049;-83
2024/04/03 13:10:00;;;;;;;1999.90;999.90;;;;;;;;;;5043794;28;20056;-82
2024/04/03 13:12:28;;;;;;;1999.90;999.90;;;;;;;;;;5043607;28;20052;-82
2024/04/03 13:14:53;;;;;;;1999.90;999.90;;;;;;;;;;5040016;28;20045;-82
2024/04/03 13:17:20;;;;;;;1999.90;999.90;;;;;;;;;;5043186;28;20060;-82
2024/04/03 13:19:46;;;;;;;1999.90;999.90;;;;;;;;;;5043772;28;20045;-82
2024/04/03 13:22:15;;;;;;;1999.90;999.90;;;;;;;;;;5044439;28;20056;-82
2024/04/03 13:24:41;;;;;;;1999.90;999.90;;;;;;;;;;5040635;28;20048;-82
2024/04/03 13:27:08;;;;;;;1999.90;999.90;;;;;;;;;;5040806;28;20068;-83
2024/04/03 13:29:35;;;;;;;1999.90;999.90;;;;;;;;;;5043751;28;20136;-83
2024/04/03 13:32:02;;;;;;;1999.90;999.90;;;;;;;;;;5039623;28;20085;-83
2024/04/03 13:34:28;;;;;;;1999.90;999.90;;;;;;;;;;5045381;28;20057;-83
2024/04/03 13:36:55;;;;;;;1999.90;999.90;;;;;;;;;;5039955;28;20045;-84
2024/04/03 13:39:20;;;;;;;1999.90;999.90;;;;;;;;;;5044352;28;20045;-83
2024/04/03 13:41:47;;;;;;;1999.90;999.90;;;;;;;;;;5039067;28;20057;-83
2024/04/03 13:44:15;;;;;;;1999.90;999.90;;;;;;;;;;5041598;28;20059;-84
2024/04/03 13:46:42;;;;;;;1999.90;999.90;;;;;;;;;;5041305;28;20080;-84